sensor_id;sensor_type;location;lat;lon;timestamp;temperature;humidity
65559;DHT22;52203;51.998;5.140;2023-08-30T00:00:17;8.85;118.99
65559;DHT22;52203;51.998;5.140;2023-08-30T00:02:46;8.85;118.99
65559;DHT22;52203;51.998;5.140;2023-08-30T00:05:13;8.80;118.99
65559;DHT22;52203;51.998;5.140;2023-08-30T00:07:39;8.78;118.99
65559;DHT22;52203;51.998;5.140;2023-08-30T00:10:06;8.74;118.99
65559;DHT22;52203;51.998;5.140;2023-08-30T00:12:33;8.71;118.99
65559;DHT22;52203;51.998;5.140;2023-08-30T00:14:59;8.67;118.99
65559;DHT22;52203;51.998;5.140;2023-08-30T00:17:25;8.67;118.99
65559;DHT22;52203;51.998;5.140;2023-08-30T00:19:50;8.66;118.99
65559;DHT22;52203;51.998;5.140;2023-08-30T00:22:18;8.68;118.99
65559;DHT22;52203;51.998;5.140;2023-08-30T00:24:44;8.73;118.99
65559;DHT22;52203;51.998;5.140;2023-08-30T00:27:10;8.75;118.99
65559;DHT22;52203;51.998;5.140;2023-08-30T00:29:36;8.78;118.99
65559;DHT22;52203;51.998;5.140;2023-08-30T00:32:01;8.81;118.99
65559;DHT22;52203;51.998;5.140;2023-08-30T00:34:27;8.85;118.99
65559;DHT22;52203;51.998;5.140;2023-08-30T00:36:53;8.89;118.99
65559;DHT22;52203;51.998;5.140;2023-08-30T00:39:18;8.91;118.99
65559;DHT22;52203;51.998;5.140;2023-08-30T00:41:44;8.94;118.99
65559;DHT22;52203;51.998;5.140;2023-08-30T00:44:10;8.96;118.99
65559;DHT22;52203;51.998;5.140;2023-08-30T00:46:36;9.00;118.99
65559;DHT22;52203;51.998;5.140;2023-08-30T00:49:02;9.01;118.99
65559;DHT22;52203;51.998;5.140;2023-08-30T00:51:28;9.03;118.99
65559;DHT22;52203;51.998;5.140;2023-08-30T00:53:54;9.04;118.99
65559;DHT22;52203;51.998;5.140;2023-08-30T00:56:20;9.07;118.99
65559;DHT22;52203;51.998;5.140;2023-08-30T00:58:47;9.09;118.99
65559;DHT22;52203;51.998;5.140;2023-08-30T01:01:15;9.10;118.99
65559;DHT22;52203;51.998;5.140;2023-08-30T01:03:41;9.11;118.99
65559;DHT22;52203;51.998;5.140;2023-08-30T01:06:06;9.12;118.99
65559;DHT22;52203;51.998;5.140;2023-08-30T01:08:33;9.12;118.99
65559;DHT22;52203;51.998;5.140;2023-08-30T01:11:08;9.16;118.99
65559;DHT22;52203;51.998;5.140;2023-08-30T01:13:52;9.16;118.99
65559;DHT22;52203;51.998;5.140;2023-08-30T01:16:19;9.19;118.99
65559;DHT22;52203;51.998;5.140;2023-08-30T01:18:47;9.20;118.99
65559;DHT22;52203;51.998;5.140;2023-08-30T01:21:26;9.20;118.99
65559;DHT22;52203;51.998;5.140;2023-08-30T01:23:59;9.21;118.99
65559;DHT22;52203;51.998;5.140;2023-08-30T01:29:28;9.22;118.99
65559;DHT22;52203;51.998;5.140;2023-08-30T01:31:55;9.21;118.99
65559;DHT22;52203;51.998;5.140;2023-08-30T01:34:22;9.22;118.99
65559;DHT22;52203;51.998;5.140;2023-08-30T01:36:48;9.23;118.99
65559;DHT22;52203;51.998;5.140;2023-08-30T01:39:15;9.22;118.99
65559;DHT22;52203;51.998;5.140;2023-08-30T01:41:41;9.22;118.99
65559;DHT22;52203;51.998;5.140;2023-08-30T01:44:08;9.24;118.99
65559;DHT22;52203;51.998;5.140;2023-08-30T01:46:34;9.25;118.99
65559;DHT22;52203;51.998;5.140;2023-08-30T01:49:02;9.24;118.99
65559;DHT22;52203;51.998;5.140;2023-08-30T01:51:29;9.25;118.99
65559;DHT22;52203;51.998;5.140;2023-08-30T01:53:57;9.24;118.99
65559;DHT22;52203;51.998;5.140;2023-08-30T01:56:23;9.26;118.99
65559;DHT22;52203;51.998;5.140;2023-08-30T01:58:48;9.26;118.99
65559;DHT22;52203;51.998;5.140;2023-08-30T02:01:15;9.26;118.99
65559;DHT22;52203;51.998;5.140;2023-08-30T02:03:43;9.27;118.99
65559;DHT22;52203;51.998;5.140;2023-08-30T02:06:14;9.30;118.99
65559;DHT22;52203;51.998;5.140;2023-08-30T02:09:14;9.31;118.99
65559;DHT22;52203;51.998;5.140;2023-08-30T02:11:44;9.30;118.99
65559;DHT22;52203;51.998;5.140;2023-08-30T02:14:13;9.30;118.99
65559;DHT22;52203;51.998;5.140;2023-08-30T02:16:44;9.27;118.99
65559;DHT22;52203;51.998;5.140;2023-08-30T02:19:11;9.27;118.99
65559;DHT22;52203;51.998;5.140;2023-08-30T02:21:38;9.26;118.99
65559;DHT22;52203;51.998;5.140;2023-08-30T02:24:04;9.25;118.99
65559;DHT22;52203;51.998;5.140;2023-08-30T02:26:29;9.26;118.99
65559;DHT22;52203;51.998;5.140;2023-08-30T02:28:55;9.27;118.99
65559;DHT22;52203;51.998;5.140;2023-08-30T02:31:20;9.25;118.99
65559;DHT22;52203;51.998;5.140;2023-08-30T02:33:46;9.24;118.99
65559;DHT22;52203;51.998;5.140;2023-08-30T02:36:11;9.21;118.99
65559;DHT22;52203;51.998;5.140;2023-08-30T02:38:37;9.21;118.99
65559;DHT22;52203;51.998;5.140;2023-08-30T02:41:03;9.18;118.99
65559;DHT22;52203;51.998;5.140;2023-08-30T02:43:28;9.16;118.99
65559;DHT22;52203;51.998;5.140;2023-08-30T02:45:54;9.14;118.99
65559;DHT22;52203;51.998;5.140;2023-08-30T02:48:20;9.10;118.99
65559;DHT22;52203;51.998;5.140;2023-08-30T02:50:45;9.06;118.99
65559;DHT22;52203;51.998;5.140;2023-08-30T02:53:11;8.98;118.99
65559;DHT22;52203;51.998;5.140;2023-08-30T02:55:36;8.94;118.99
65559;DHT22;52203;51.998;5.140;2023-08-30T02:58:02;8.90;118.99
65559;DHT22;52203;51.998;5.140;2023-08-30T03:00:28;8.86;118.99
65559;DHT22;52203;51.998;5.140;2023-08-30T03:02:53;8.79;118.99
65559;DHT22;52203;51.998;5.140;2023-08-30T03:05:19;8.71;118.99
65559;DHT22;52203;51.998;5.140;2023-08-30T03:07:45;8.66;118.99
65559;DHT22;52203;51.998;5.140;2023-08-30T03:10:12;8.58;118.99
65559;DHT22;52203;51.998;5.140;2023-08-30T03:12:37;8.53;118.99
65559;DHT22;52203;51.998;5.140;2023-08-30T03:15:04;8.50;118.99
65559;DHT22;52203;51.998;5.140;2023-08-30T03:17:30;8.46;118.99
65559;DHT22;52203;51.998;5.140;2023-08-30T03:19:56;8.42;118.99
65559;DHT22;52203;51.998;5.140;2023-08-30T03:22:22;8.38;118.99
65559;DHT22;52203;51.998;5.140;2023-08-30T03:24:47;8.33;118.99
65559;DHT22;52203;51.998;5.140;2023-08-30T03:27:15;8.28;118.99
65559;DHT22;52203;51.998;5.140;2023-08-30T03:29:41;8.23;118.99
65559;DHT22;52203;51.998;5.140;2023-08-30T03:32:06;8.18;118.99
65559;DHT22;52203;51.998;5.140;2023-08-30T03:34:32;8.15;118.99
65559;DHT22;52203;51.998;5.140;2023-08-30T03:36:57;8.09;118.99
65559;DHT22;52203;51.998;5.140;2023-08-30T03:39:23;8.05;118.99
65559;DHT22;52203;51.998;5.140;2023-08-30T03:41:50;8.05;118.99
65559;DHT22;52203;51.998;5.140;2023-08-30T03:44:15;8.04;118.99
65559;DHT22;52203;51.998;5.140;2023-08-30T03:46:41;8.01;118.99
65559;DHT22;52203;51.998;5.140;2023-08-30T03:49:06;7.96;118.99
65559;DHT22;52203;51.998;5.140;2023-08-30T03:51:32;7.94;118.99
65559;DHT22;52203;51.998;5.140;2023-08-30T03:53:57;7.96;118.99
65559;DHT22;52203;51.998;5.140;2023-08-30T03:56:23;7.98;118.99
65559;DHT22;52203;51.998;5.140;2023-08-30T03:58:48;7.97;118.99
65559;DHT22;52203;51.998;5.140;2023-08-30T04:01:14;8.04;118.99
65559;DHT22;52203;51.998;5.140;2023-08-30T04:03:40;8.06;118.99
65559;DHT22;52203;51.998;5.140;2023-08-30T04:06:06;8.05;118.99
65559;DHT22;52203;51.998;5.140;2023-08-30T04:08:32;8.06;118.99
65559;DHT22;52203;51.998;5.140;2023-08-30T04:10:57;8.07;118.99
65559;DHT22;52203;51.998;5.140;2023-08-30T04:13:23;8.07;118.99
65559;DHT22;52203;51.998;5.140;2023-08-30T04:15:49;8.06;118.99
65559;DHT22;52203;51.998;5.140;2023-08-30T04:18:14;8.03;118.99
65559;DHT22;52203;51.998;5.140;2023-08-30T04:20:46;8.01;118.99
65559;DHT22;52203;51.998;5.140;2023-08-30T04:23:13;7.98;118.99
65559;DHT22;52203;51.998;5.140;2023-08-30T04:25:39;7.93;118.99
65559;DHT22;52203;51.998;5.140;2023-08-30T04:28:04;7.88;118.99
65559;DHT22;52203;51.998;5.140;2023-08-30T04:30:30;7.83;118.99
65559;DHT22;52203;51.998;5.140;2023-08-30T04:32:56;7.81;118.99
65559;DHT22;52203;51.998;5.140;2023-08-30T04:35:21;7.78;118.99
65559;DHT22;52203;51.998;5.140;2023-08-30T04:37:47;7.76;118.99
65559;DHT22;52203;51.998;5.140;2023-08-30T04:40:16;7.76;118.99
65559;DHT22;52203;51.998;5.140;2023-08-30T04:42:42;7.79;118.99
65559;DHT22;52203;51.998;5.140;2023-08-30T04:45:08;7.79;118.99
65559;DHT22;52203;51.998;5.140;2023-08-30T04:47:35;7.81;118.99
65559;DHT22;52203;51.998;5.140;2023-08-30T04:50:01;7.84;118.99
65559;DHT22;52203;51.998;5.140;2023-08-30T04:52:26;7.83;118.99
65559;DHT22;52203;51.998;5.140;2023-08-30T04:54:52;7.85;118.99
65559;DHT22;52203;51.998;5.140;2023-08-30T04:57:19;7.86;118.99
65559;DHT22;52203;51.998;5.140;2023-08-30T04:59:45;7.86;118.99
65559;DHT22;52203;51.998;5.140;2023-08-30T05:02:11;7.93;118.99
65559;DHT22;52203;51.998;5.140;2023-08-30T05:04:37;7.94;118.99
65559;DHT22;52203;51.998;5.140;2023-08-30T05:07:03;7.97;118.99
65559;DHT22;52203;51.998;5.140;2023-08-30T05:09:30;7.99;118.99
65559;DHT22;52203;51.998;5.140;2023-08-30T05:11:56;8.04;118.99
65559;DHT22;52203;51.998;5.140;2023-08-30T05:14:21;8.07;118.99
65559;DHT22;52203;51.998;5.140;2023-08-30T05:16:51;8.14;118.99
65559;DHT22;52203;51.998;5.140;2023-08-30T05:19:16;8.18;118.99
65559;DHT22;52203;51.998;5.140;2023-08-30T05:21:43;8.22;118.99
65559;DHT22;52203;51.998;5.140;2023-08-30T05:24:08;8.30;118.99
65559;DHT22;52203;51.998;5.140;2023-08-30T05:26:35;8.38;118.99
65559;DHT22;52203;51.998;5.140;2023-08-30T05:29:02;8.47;118.99
65559;DHT22;52203;51.998;5.140;2023-08-30T05:31:27;8.50;118.99
65559;DHT22;52203;51.998;5.140;2023-08-30T05:33:53;8.52;118.99
65559;DHT22;52203;51.998;5.140;2023-08-30T05:36:18;8.55;118.99
65559;DHT22;52203;51.998;5.140;2023-08-30T05:38:44;8.57;118.99
65559;DHT22;52203;51.998;5.140;2023-08-30T05:41:09;8.57;118.99
65559;DHT22;52203;51.998;5.140;2023-08-30T05:43:35;8.57;118.99
65559;DHT22;52203;51.998;5.140;2023-08-30T05:46:01;8.59;118.99
65559;DHT22;52203;51.998;5.140;2023-08-30T05:48:30;8.61;118.99
65559;DHT22;52203;51.998;5.140;2023-08-30T05:50:57;8.60;118.99
65559;DHT22;52203;51.998;5.140;2023-08-30T05:53:23;8.62;118.99
65559;DHT22;52203;51.998;5.140;2023-08-30T05:55:48;8.65;118.99
65559;DHT22;52203;51.998;5.140;2023-08-30T05:58:14;8.68;118.99
65559;DHT22;52203;51.998;5.140;2023-08-30T06:00:41;8.73;118.99
65559;DHT22;52203;51.998;5.140;2023-08-30T06:03:06;8.77;118.99
65559;DHT22;52203;51.998;5.140;2023-08-30T06:05:33;8.79;118.99
65559;DHT22;52203;51.998;5.140;2023-08-30T06:07:59;8.80;118.99
65559;DHT22;52203;51.998;5.140;2023-08-30T06:10:24;8.81;118.99
65559;DHT22;52203;51.998;5.140;2023-08-30T06:12:50;8.79;118.99
65559;DHT22;52203;51.998;5.140;2023-08-30T06:15:16;8.78;118.99
65559;DHT22;52203;51.998;5.140;2023-08-30T06:17:41;8.76;118.99
65559;DHT22;52203;51.998;5.140;2023-08-30T06:20:07;8.73;118.99
65559;DHT22;52203;51.998;5.140;2023-08-30T06:22:33;8.73;118.99
65559;DHT22;52203;51.998;5.140;2023-08-30T06:24:58;8.74;118.99
65559;DHT22;52203;51.998;5.140;2023-08-30T06:27:24;8.73;118.99
65559;DHT22;52203;51.998;5.140;2023-08-30T06:29:49;8.73;118.99
65559;DHT22;52203;51.998;5.140;2023-08-30T06:32:16;8.75;118.99
65559;DHT22;52203;51.998;5.140;2023-08-30T06:34:42;8.75;118.99
65559;DHT22;52203;51.998;5.140;2023-08-30T06:37:08;8.73;118.99
65559;DHT22;52203;51.998;5.140;2023-08-30T06:39:34;8.82;118.99
65559;DHT22;52203;51.998;5.140;2023-08-30T06:42:02;8.88;118.99
65559;DHT22;52203;51.998;5.140;2023-08-30T06:44:27;8.93;118.99
65559;DHT22;52203;51.998;5.140;2023-08-30T06:46:54;8.98;118.99
65559;DHT22;52203;51.998;5.140;2023-08-30T06:49:19;9.01;118.99
65559;DHT22;52203;51.998;5.140;2023-08-30T06:51:45;9.02;118.99
65559;DHT22;52203;51.998;5.140;2023-08-30T06:54:10;9.07;118.99
65559;DHT22;52203;51.998;5.140;2023-08-30T06:56:36;9.09;118.99
65559;DHT22;52203;51.998;5.140;2023-08-30T06:59:02;9.08;118.99
65559;DHT22;52203;51.998;5.140;2023-08-30T07:01:27;9.10;118.99
65559;DHT22;52203;51.998;5.140;2023-08-30T07:03:53;9.10;118.99
65559;DHT22;52203;51.998;5.140;2023-08-30T07:06:18;9.10;118.99
65559;DHT22;52203;51.998;5.140;2023-08-30T07:08:44;9.10;118.99
65559;DHT22;52203;51.998;5.140;2023-08-30T07:11:09;9.15;118.99
65559;DHT22;52203;51.998;5.140;2023-08-30T07:13:36;9.15;118.99
65559;DHT22;52203;51.998;5.140;2023-08-30T07:16:01;9.12;118.99
65559;DHT22;52203;51.998;5.140;2023-08-30T07:18:27;9.17;118.99
65559;DHT22;52203;51.998;5.140;2023-08-30T07:20:52;9.18;118.99
65559;DHT22;52203;51.998;5.140;2023-08-30T07:23:18;9.20;118.99
65559;DHT22;52203;51.998;5.140;2023-08-30T07:25:43;9.29;118.99
65559;DHT22;52203;51.998;5.140;2023-08-30T07:28:10;9.30;118.99
65559;DHT22;52203;51.998;5.140;2023-08-30T07:30:37;9.35;118.99
65559;DHT22;52203;51.998;5.140;2023-08-30T07:33:04;9.34;118.99
65559;DHT22;52203;51.998;5.140;2023-08-30T07:35:32;9.38;118.99
65559;DHT22;52203;51.998;5.140;2023-08-30T07:37:58;9.40;118.99
65559;DHT22;52203;51.998;5.140;2023-08-30T07:40:23;9.39;118.99
65559;DHT22;52203;51.998;5.140;2023-08-30T07:42:52;9.41;118.99
65559;DHT22;52203;51.998;5.140;2023-08-30T07:45:18;9.41;118.99
65559;DHT22;52203;51.998;5.140;2023-08-30T07:47:43;9.42;118.99
65559;DHT22;52203;51.998;5.140;2023-08-30T07:50:09;9.47;118.99
65559;DHT22;52203;51.998;5.140;2023-08-30T07:52:35;9.48;118.99
65559;DHT22;52203;51.998;5.140;2023-08-30T07:55:00;9.53;118.99
65559;DHT22;52203;51.998;5.140;2023-08-30T07:57:26;9.56;118.99
65559;DHT22;52203;51.998;5.140;2023-08-30T07:59:52;9.59;118.99
65559;DHT22;52203;51.998;5.140;2023-08-30T08:02:17;9.61;118.99
65559;DHT22;52203;51.998;5.140;2023-08-30T08:04:43;9.66;118.99
65559;DHT22;52203;51.998;5.140;2023-08-30T08:07:08;9.65;118.99
65559;DHT22;52203;51.998;5.140;2023-08-30T08:09:34;9.66;118.99
65559;DHT22;52203;51.998;5.140;2023-08-30T08:12:00;9.68;118.99
65559;DHT22;52203;51.998;5.140;2023-08-30T08:14:25;9.68;118.99
65559;DHT22;52203;51.998;5.140;2023-08-30T08:16:51;9.69;118.99
65559;DHT22;52203;51.998;5.140;2023-08-30T08:19:16;9.70;118.99
65559;DHT22;52203;51.998;5.140;2023-08-30T08:21:42;9.74;118.99
65559;DHT22;52203;51.998;5.140;2023-08-30T08:24:07;9.75;118.99
65559;DHT22;52203;51.998;5.140;2023-08-30T08:26:33;9.75;118.99
65559;DHT22;52203;51.998;5.140;2023-08-30T08:28:58;9.77;118.99
65559;DHT22;52203;51.998;5.140;2023-08-30T08:31:25;9.78;118.99
65559;DHT22;52203;51.998;5.140;2023-08-30T08:36:30;9.83;118.99
65559;DHT22;52203;51.998;5.140;2023-08-30T08:38:55;9.82;118.99
65559;DHT22;52203;51.998;5.140;2023-08-30T08:41:23;9.85;118.99
65559;DHT22;52203;51.998;5.140;2023-08-30T08:43:52;9.92;118.99
65559;DHT22;52203;51.998;5.140;2023-08-30T08:46:19;9.95;118.99
65559;DHT22;52203;51.998;5.140;2023-08-30T08:48:46;9.92;118.99
65559;DHT22;52203;51.998;5.140;2023-08-30T08:51:13;9.94;118.99
65559;DHT22;52203;51.998;5.140;2023-08-30T08:53:39;9.98;118.99
65559;DHT22;52203;51.998;5.140;2023-08-30T08:56:06;10.03;118.99
65559;DHT22;52203;51.998;5.140;2023-08-30T08:58:36;10.19;118.99
65559;DHT22;52203;51.998;5.140;2023-08-30T09:01:03;10.22;118.99
65559;DHT22;52203;51.998;5.140;2023-08-30T09:03:30;10.33;118.99
65559;DHT22;52203;51.998;5.140;2023-08-30T09:05:56;10.28;118.99
65559;DHT22;52203;51.998;5.140;2023-08-30T09:08:21;10.15;118.99
65559;DHT22;52203;51.998;5.140;2023-08-30T09:10:47;10.31;118.99
65559;DHT22;52203;51.998;5.140;2023-08-30T09:13:16;10.18;118.99
65559;DHT22;52203;51.998;5.140;2023-08-30T09:15:41;10.13;118.99
65559;DHT22;52203;51.998;5.140;2023-08-30T09:18:17;10.12;118.99
65559;DHT22;52203;51.998;5.140;2023-08-30T09:20:43;10.13;118.99
65559;DHT22;52203;51.998;5.140;2023-08-30T09:23:21;10.41;118.99
65559;DHT22;52203;51.998;5.140;2023-08-30T09:25:47;10.64;118.99
65559;DHT22;52203;51.998;5.140;2023-08-30T09:28:12;10.92;118.99
65559;DHT22;52203;51.998;5.140;2023-08-30T09:30:39;11.10;118.99
65559;DHT22;52203;51.998;5.140;2023-08-30T09:33:05;11.23;118.99
65559;DHT22;52203;51.998;5.140;2023-08-30T09:35:31;11.37;118.99
65559;DHT22;52203;51.998;5.140;2023-08-30T09:37:57;11.66;118.99
65559;DHT22;52203;51.998;5.140;2023-08-30T09:40:22;12.11;118.99
65559;DHT22;52203;51.998;5.140;2023-08-30T09:42:48;12.44;118.99
65559;DHT22;52203;51.998;5.140;2023-08-30T09:45:23;12.69;118.99
65559;DHT22;52203;51.998;5.140;2023-08-30T09:47:49;12.89;118.99
65559;DHT22;52203;51.998;5.140;2023-08-30T09:50:20;13.11;118.99
65559;DHT22;52203;51.998;5.140;2023-08-30T09:52:47;13.45;118.99
65559;DHT22;52203;51.998;5.140;2023-08-30T09:55:14;13.89;118.99
65559;DHT22;52203;51.998;5.140;2023-08-30T09:57:42;14.27;118.99
65559;DHT22;52203;51.998;5.140;2023-08-30T10:00:09;14.22;118.99
65559;DHT22;52203;51.998;5.140;2023-08-30T10:02:39;14.65;118.99
65559;DHT22;52203;51.998;5.140;2023-08-30T10:05:08;14.65;118.99
65559;DHT22;52203;51.998;5.140;2023-08-30T10:07:35;14.85;118.99
65559;DHT22;52203;51.998;5.140;2023-08-30T10:10:03;15.10;118.99
65559;DHT22;52203;51.998;5.140;2023-08-30T10:12:31;15.08;118.99
65559;DHT22;52203;51.998;5.140;2023-08-30T10:14:57;15.14;118.99
65559;DHT22;52203;51.998;5.140;2023-08-30T10:17:31;16.10;118.99
65559;DHT22;52203;51.998;5.140;2023-08-30T10:19:57;17.37;118.99
65559;DHT22;52203;51.998;5.140;2023-08-30T10:22:25;16.88;118.99
65559;DHT22;52203;51.998;5.140;2023-08-30T10:25:00;17.18;118.99
65559;DHT22;52203;51.998;5.140;2023-08-30T10:27:27;17.18;118.99
65559;DHT22;52203;51.998;5.140;2023-08-30T10:29:55;17.24;118.99
65559;DHT22;52203;51.998;5.140;2023-08-30T10:32:21;17.34;118.99
65559;DHT22;52203;51.998;5.140;2023-08-30T10:34:48;17.36;118.99
65559;DHT22;52203;51.998;5.140;2023-08-30T10:37:15;17.55;118.99
65559;DHT22;52203;51.998;5.140;2023-08-30T10:39:42;17.51;118.99
65559;DHT22;52203;51.998;5.140;2023-08-30T10:42:13;0.00;118.99
65559;DHT22;52203;51.998;5.140;2023-08-30T10:44:51;12.97;118.99
65559;DHT22;52203;51.998;5.140;2023-08-30T10:47:22;13.16;118.99
65559;DHT22;52203;51.998;5.140;2023-08-30T10:49:49;13.29;118.99
65559;DHT22;52203;51.998;5.140;2023-08-30T10:52:15;13.22;118.99
65559;DHT22;52203;51.998;5.140;2023-08-30T10:54:40;13.23;118.99
65559;DHT22;52203;51.998;5.140;2023-08-30T10:57:18;13.24;118.99
65559;DHT22;52203;51.998;5.140;2023-08-30T11:02:38;12.93;118.99
65559;DHT22;52203;51.998;5.140;2023-08-30T11:05:08;13.68;118.99
65559;DHT22;52203;51.998;5.140;2023-08-30T11:07:34;13.52;118.99
65559;DHT22;52203;51.998;5.140;2023-08-30T11:10:00;14.33;118.99
65559;DHT22;52203;51.998;5.140;2023-08-30T11:12:26;12.52;118.99
65559;DHT22;52203;51.998;5.140;2023-08-30T11:14:52;12.49;118.99
65559;DHT22;52203;51.998;5.140;2023-08-30T11:17:20;12.60;118.99
65559;DHT22;52203;51.998;5.140;2023-08-30T11:19:49;12.50;118.99
65559;DHT22;52203;51.998;5.140;2023-08-30T11:22:15;12.57;118.99
65559;DHT22;52203;51.998;5.140;2023-08-30T11:24:42;12.53;118.99
65559;DHT22;52203;51.998;5.140;2023-08-30T11:27:09;12.52;118.99
65559;DHT22;52203;51.998;5.140;2023-08-30T11:29:35;12.56;118.99
65559;DHT22;52203;51.998;5.140;2023-08-30T11:32:00;12.62;118.99
65559;DHT22;52203;51.998;5.140;2023-08-30T11:34:26;12.59;118.99
65559;DHT22;52203;51.998;5.140;2023-08-30T11:36:52;12.55;118.99
65559;DHT22;52203;51.998;5.140;2023-08-30T11:39:17;12.41;118.99
65559;DHT22;52203;51.998;5.140;2023-08-30T11:41:43;12.40;118.99
65559;DHT22;52203;51.998;5.140;2023-08-30T11:44:09;12.42;118.99
65559;DHT22;52203;51.998;5.140;2023-08-30T11:46:35;13.76;118.99
65559;DHT22;52203;51.998;5.140;2023-08-30T11:49:01;13.33;118.99
65559;DHT22;52203;51.998;5.140;2023-08-30T11:51:28;13.40;118.99
65559;DHT22;52203;51.998;5.140;2023-08-30T11:53:55;13.45;118.99
65559;DHT22;52203;51.998;5.140;2023-08-30T11:56:21;13.52;118.99
65559;DHT22;52203;51.998;5.140;2023-08-30T11:58:48;13.63;118.99
65559;DHT22;52203;51.998;5.140;2023-08-30T12:01:13;13.95;118.99
65559;DHT22;52203;51.998;5.140;2023-08-30T12:03:39;14.43;118.99
65559;DHT22;52203;51.998;5.140;2023-08-30T12:06:11;14.88;118.99
65559;DHT22;52203;51.998;5.140;2023-08-30T12:08:37;15.11;118.99
65559;DHT22;52203;51.998;5.140;2023-08-30T12:11:03;15.26;118.99
65559;DHT22;52203;51.998;5.140;2023-08-30T12:13:31;15.34;118.99
65559;DHT22;52203;51.998;5.140;2023-08-30T12:15:58;15.37;118.99
65559;DHT22;52203;51.998;5.140;2023-08-30T12:18:28;15.32;118.99
65559;DHT22;52203;51.998;5.140;2023-08-30T12:23:24;14.96;118.99
65559;DHT22;52203;51.998;5.140;2023-08-30T12:26:09;15.14;118.99
65559;DHT22;52203;51.998;5.140;2023-08-30T12:28:37;15.37;118.99
65559;DHT22;52203;51.998;5.140;2023-08-30T12:31:03;14.27;118.99
65559;DHT22;52203;51.998;5.140;2023-08-30T12:33:33;14.40;118.99
65559;DHT22;52203;51.998;5.140;2023-08-30T12:35:59;14.59;118.99
65559;DHT22;52203;51.998;5.140;2023-08-30T12:38:25;14.69;118.99
65559;DHT22;52203;51.998;5.140;2023-08-30T12:40:52;14.67;118.99
65559;DHT22;52203;51.998;5.140;2023-08-30T12:43:18;14.68;118.99
65559;DHT22;52203;51.998;5.140;2023-08-30T12:45:48;14.60;118.99
65559;DHT22;52203;51.998;5.140;2023-08-30T12:48:15;14.41;118.99
65559;DHT22;52203;51.998;5.140;2023-08-30T12:50:43;14.32;118.99
65559;DHT22;52203;51.998;5.140;2023-08-30T12:53:10;14.04;118.99
65559;DHT22;52203;51.998;5.140;2023-08-30T12:55:36;14.12;118.99
65559;DHT22;52203;51.998;5.140;2023-08-30T12:58:03;15.19;118.99
65559;DHT22;52203;51.998;5.140;2023-08-30T13:00:29;15.65;118.99
65559;DHT22;52203;51.998;5.140;2023-08-30T13:02:54;15.73;118.99
65559;DHT22;52203;51.998;5.140;2023-08-30T13:05:20;15.68;118.99
65559;DHT22;52203;51.998;5.140;2023-08-30T13:07:46;15.59;118.99
65559;DHT22;52203;51.998;5.140;2023-08-30T13:10:12;15.45;118.99
65559;DHT22;52203;51.998;5.140;2023-08-30T13:12:38;15.34;118.99
65559;DHT22;52203;51.998;5.140;2023-08-30T13:15:04;15.28;118.99
65559;DHT22;52203;51.998;5.140;2023-08-30T13:17:30;15.23;118.99
65559;DHT22;52203;51.998;5.140;2023-08-30T13:19:55;15.37;118.99
65559;DHT22;52203;51.998;5.140;2023-08-30T13:22:23;15.43;118.99
65559;DHT22;52203;51.998;5.140;2023-08-30T13:24:49;15.52;118.99
65559;DHT22;52203;51.998;5.140;2023-08-30T13:27:14;15.47;118.99
65559;DHT22;52203;51.998;5.140;2023-08-30T13:29:40;15.42;118.99
65559;DHT22;52203;51.998;5.140;2023-08-30T13:32:06;15.32;118.99
65559;DHT22;52203;51.998;5.140;2023-08-30T13:34:31;15.24;118.99
65559;DHT22;52203;51.998;5.140;2023-08-30T13:36:57;14.95;118.99
65559;DHT22;52203;51.998;5.140;2023-08-30T13:39:22;15.16;118.99
65559;DHT22;52203;51.998;5.140;2023-08-30T13:41:48;13.99;118.99
65559;DHT22;52203;51.998;5.140;2023-08-30T13:44:14;15.58;118.99
65559;DHT22;52203;51.998;5.140;2023-08-30T13:46:40;15.48;118.99
65559;DHT22;52203;51.998;5.140;2023-08-30T13:49:06;15.32;118.99
65559;DHT22;52203;51.998;5.140;2023-08-30T13:51:32;14.01;118.99
65559;DHT22;52203;51.998;5.140;2023-08-30T13:53:58;15.08;118.99
65559;DHT22;52203;51.998;5.140;2023-08-30T13:56:24;14.00;118.99
65559;DHT22;52203;51.998;5.140;2023-08-30T13:58:49;14.34;118.99
65559;DHT22;52203;51.998;5.140;2023-08-30T14:01:16;14.71;118.99
65559;DHT22;52203;51.998;5.140;2023-08-30T14:03:42;15.02;118.99
65559;DHT22;52203;51.998;5.140;2023-08-30T14:06:08;15.28;118.99
65559;DHT22;52203;51.998;5.140;2023-08-30T14:08:34;15.53;118.99
65559;DHT22;52203;51.998;5.140;2023-08-30T14:10:59;15.32;118.99
65559;DHT22;52203;51.998;5.140;2023-08-30T14:13:25;15.23;118.99
65559;DHT22;52203;51.998;5.140;2023-08-30T14:15:53;15.16;118.99
65559;DHT22;52203;51.998;5.140;2023-08-30T14:18:19;15.23;118.99
65559;DHT22;52203;51.998;5.140;2023-08-30T14:20:44;15.27;118.99
65559;DHT22;52203;51.998;5.140;2023-08-30T14:23:10;15.22;118.99
65559;DHT22;52203;51.998;5.140;2023-08-30T14:25:36;15.14;118.99
65559;DHT22;52203;51.998;5.140;2023-08-30T14:28:02;15.16;118.99
65559;DHT22;52203;51.998;5.140;2023-08-30T14:30:29;15.23;118.99
65559;DHT22;52203;51.998;5.140;2023-08-30T14:32:55;15.23;118.99
65559;DHT22;52203;51.998;5.140;2023-08-30T14:35:21;15.12;118.99
65559;DHT22;52203;51.998;5.140;2023-08-30T14:37:47;15.06;118.99
65559;DHT22;52203;51.998;5.140;2023-08-30T14:40:13;15.04;118.99
65559;DHT22;52203;51.998;5.140;2023-08-30T14:42:39;15.06;118.99
65559;DHT22;52203;51.998;5.140;2023-08-30T14:45:06;15.03;118.99
65559;DHT22;52203;51.998;5.140;2023-08-30T14:47:35;14.97;118.99
65559;DHT22;52203;51.998;5.140;2023-08-30T14:50:01;14.82;118.99
65559;DHT22;52203;51.998;5.140;2023-08-30T14:52:28;14.59;118.99
65559;DHT22;52203;51.998;5.140;2023-08-30T14:54:54;14.45;118.99
65559;DHT22;52203;51.998;5.140;2023-08-30T14:57:20;14.41;118.99
65559;DHT22;52203;51.998;5.140;2023-08-30T14:59:48;14.40;118.99
65559;DHT22;52203;51.998;5.140;2023-08-30T15:02:14;14.35;118.99
65559;DHT22;52203;51.998;5.140;2023-08-30T15:04:40;13.86;118.99
65559;DHT22;52203;51.998;5.140;2023-08-30T15:07:06;14.33;118.99
65559;DHT22;52203;51.998;5.140;2023-08-30T15:09:31;12.78;118.99
65559;DHT22;52203;51.998;5.140;2023-08-30T15:11:57;12.78;118.99
65559;DHT22;52203;51.998;5.140;2023-08-30T15:14:25;12.72;118.99
65559;DHT22;52203;51.998;5.140;2023-08-30T15:16:51;12.42;118.99
65559;DHT22;52203;51.998;5.140;2023-08-30T15:19:17;13.46;118.99
65559;DHT22;52203;51.998;5.140;2023-08-30T15:21:42;13.29;118.99
65559;DHT22;52203;51.998;5.140;2023-08-30T15:24:11;12.48;118.99
65559;DHT22;52203;51.998;5.140;2023-08-30T15:26:38;12.34;118.99
65559;DHT22;52203;51.998;5.140;2023-08-30T15:29:04;12.36;118.99
65559;DHT22;52203;51.998;5.140;2023-08-30T15:31:30;12.42;118.99